createdAt,value
2022-11-14T00:04:49.009Z,22.00
2022-11-14T00:10:12.470Z,22.10
2022-11-14T00:15:34.220Z,21.52
2022-11-14T00:20:56.398Z,22.17
2022-11-14T00:26:19.813Z,21.23
2022-11-14T00:31:42.428Z,21.90
2022-11-14T00:37:04.584Z,22.23
2022-11-14T00:42:27.872Z,24.05
2022-11-14T00:47:49.908Z,23.17
2022-11-14T00:53:11.973Z,20.38
2022-11-14T00:58:35.156Z,22.98
2022-11-14T01:03:56.844Z,22.58
2022-11-14T01:09:18.789Z,25.10
2022-11-14T01:14:42.128Z,20.85
2022-11-14T01:20:05.233Z,23.13
2022-11-14T01:25:27.218Z,20.58
2022-11-14T01:30:50.040Z,22.25
2022-11-14T01:36:12.131Z,21.50
2022-11-14T01:41:34.202Z,23.33
2022-11-14T01:46:57.313Z,23.10
2022-11-14T01:52:22.158Z,24.73
2022-11-14T01:57:47.055Z,23.55
2022-11-14T02:03:11.303Z,23.50
2022-11-14T02:08:33.919Z,21.77
2022-11-14T02:13:55.991Z,24.77
2022-11-14T02:19:19.370Z,23.40
2022-11-14T02:24:42.876Z,22.58
2022-11-14T02:30:07.050Z,23.02
2022-11-14T02:35:29.124Z,26.58
2022-11-14T02:40:52.320Z,25.17
2022-11-14T02:46:14.114Z,25.13
2022-11-14T02:51:35.885Z,28.00
2022-11-14T02:56:59.541Z,26.92
2022-11-14T03:02:21.171Z,27.73
2022-11-14T03:07:42.601Z,25.58
2022-11-14T03:13:05.646Z,24.73
2022-11-14T03:18:27.526Z,27.70
2022-11-14T03:23:49.500Z,28.45
2022-11-14T03:29:12.346Z,27.05
2022-11-14T03:34:33.897Z,28.25
2022-11-14T03:39:55.864Z,24.00
2022-11-14T03:45:19.142Z,25.90
2022-11-14T03:50:41.805Z,23.95
2022-11-14T03:56:04.387Z,24.70
2022-11-14T04:01:29.108Z,25.55
2022-11-14T04:06:50.949Z,24.48
2022-11-14T04:12:15.878Z,25.33
2022-11-14T04:17:40.113Z,26.08
2022-11-14T04:23:02.138Z,22.88
2022-11-14T04:28:24.131Z,24.05
2022-11-14T04:33:47.101Z,22.10
2022-11-14T04:39:08.807Z,24.33
2022-11-14T04:44:30.623Z,24.92
2022-11-14T04:49:53.374Z,26.38
2022-11-14T04:55:15.154Z,27.00
2022-11-14T05:00:37.059Z,24.45
2022-11-14T05:06:02.776Z,26.92
2022-11-14T05:11:28.990Z,25.15
2022-11-14T05:16:51.150Z,24.20
2022-11-14T05:22:14.436Z,26.38
2022-11-14T05:27:36.023Z,25.80
2022-11-14T05:32:57.531Z,29.63
2022-11-14T05:38:20.708Z,26.33
2022-11-14T05:43:43.633Z,27.27
2022-11-14T05:49:05.370Z,25.70
2022-11-14T05:54:28.502Z,25.17
2022-11-14T05:59:50.268Z,26.50
2022-11-14T06:05:12.187Z,31.67
2022-11-14T06:10:36.528Z,30.48
2022-11-14T06:16:00.850Z,25.70
2022-11-14T06:21:24.394Z,26.75
2022-11-14T06:26:47.737Z,27.98
2022-11-14T06:32:09.254Z,28.33
2022-11-14T06:37:33.855Z,26.52
2022-11-14T06:42:57.347Z,27.58
2022-11-14T06:48:18.965Z,25.92
2022-11-14T06:53:41.524Z,28.05
2022-11-14T06:59:04.663Z,22.00
2022-11-14T07:04:26.560Z,29.27
2022-11-14T07:09:48.068Z,26.85
2022-11-14T07:15:11.402Z,22.58
2022-11-14T07:20:33.242Z,28.58
2022-11-14T07:25:55.089Z,28.23
2022-11-14T07:31:19.851Z,26.80
2022-11-14T07:36:41.771Z,26.13
2022-11-14T07:42:03.887Z,25.40
2022-11-14T07:47:26.975Z,25.40
2022-11-14T07:52:51.022Z,27.42
2022-11-14T07:58:13.546Z,24.90
2022-11-14T08:03:40.921Z,27.02
2022-11-14T08:09:05.793Z,25.80
2022-11-14T08:14:27.772Z,24.98
2022-11-14T08:19:51.027Z,26.58
2022-11-14T08:25:12.561Z,27.25
2022-11-14T08:30:34.422Z,27.73
2022-11-14T08:36:00.984Z,25.70
2022-11-14T08:41:22.751Z,23.83
2022-11-14T08:46:44.599Z,25.60
2022-11-14T08:52:12.331Z,25.25
2022-11-14T08:57:37.394Z,21.83
2022-11-14T09:02:59.099Z,23.30
2022-11-14T09:08:22.695Z,20.58
2022-11-14T09:13:44.547Z,17.88
2022-11-14T09:19:06.264Z,18.83
2022-11-14T09:24:29.495Z,20.10
2022-11-14T09:29:51.587Z,17.92
2022-11-14T09:35:13.278Z,18.92
2022-11-14T09:40:49.468Z,19.60
2022-11-14T09:46:20.822Z,18.42
2022-11-14T09:51:49.364Z,17.38
2022-11-14T09:57:17.340Z,18.17
2022-11-14T10:02:50.766Z,18.45
2022-11-14T10:08:26.630Z,19.08
2022-11-14T10:14:15.589Z,18.08
2022-11-14T10:19:43.099Z,19.25
2022-11-14T10:25:21.202Z,17.40
2022-11-14T10:30:53.380Z,17.60
2022-11-14T10:36:23.519Z,16.70
2022-11-14T10:42:07.508Z,16.85
2022-11-14T10:47:36.776Z,17.67
2022-11-14T10:53:03.156Z,16.55
2022-11-14T10:58:25.046Z,15.43
2022-11-14T11:03:47.936Z,14.60
2022-11-14T11:09:33.384Z,17.30
2022-11-14T11:15:15.142Z,15.52
2022-11-14T11:20:41.045Z,16.90
2022-11-14T11:26:05.940Z,15.10
2022-11-14T11:31:27.813Z,16.48
2022-11-14T11:36:55.493Z,13.85
2022-11-14T11:42:22.795Z,14.57
2022-11-14T11:47:50.534Z,13.15
2022-11-14T11:53:21.072Z,15.10
2022-11-14T11:58:47.277Z,14.48
2022-11-14T12:04:09.013Z,15.60
2022-11-14T12:10:08.940Z,13.73
2022-11-14T12:15:24.388Z,15.38
2022-11-14T12:21:03.771Z,13.82
2022-11-14T12:26:44.738Z,13.73
2022-11-14T12:32:11.486Z,14.02
2022-11-14T12:37:36.102Z,12.65
2022-11-14T12:43:01.545Z,13.00
2022-11-14T12:48:30.828Z,13.57
2022-11-14T12:53:53.332Z,13.68
2022-11-14T12:59:28.302Z,12.45
2022-11-14T13:05:14.782Z,12.55
2022-11-14T13:10:39.651Z,12.15
2022-11-14T13:16:22.594Z,11.60
2022-11-14T13:22:18.317Z,10.60
2022-11-14T13:28:05.946Z,13.18
2022-11-14T13:33:45.067Z,12.68
2022-11-14T13:39:24.852Z,10.27
2022-11-14T13:45:17.970Z,11.13
2022-11-14T13:50:43.734Z,12.70
2022-11-14T13:56:20.380Z,12.20
2022-11-14T14:01:53.090Z,11.10
2022-11-14T14:07:24.212Z,10.98
2022-11-14T14:12:59.521Z,11.07
2022-11-14T14:18:30.305Z,10.65
2022-11-14T14:24:04.420Z,11.07
2022-11-14T14:29:33.336Z,11.20
2022-11-14T14:34:58.457Z,10.18
2022-11-14T14:45:53.291Z,11.10
2022-11-14T14:51:29.043Z,11.88
2022-11-14T14:57:00.069Z,10.55
2022-11-14T15:02:23.393Z,11.00
2022-11-14T15:07:46.453Z,11.50
2022-11-14T15:13:14.207Z,10.48
2022-11-14T15:18:36.735Z,11.10
2022-11-14T15:24:00.495Z,10.63
2022-11-14T15:29:25.401Z,11.10
2022-11-14T15:35:09.363Z,10.00
2022-11-14T15:40:35.441Z,12.10
2022-11-14T15:46:02.582Z,9.88
2022-11-14T15:51:43.525Z,12.63
2022-11-14T15:57:13.113Z,12.00
2022-11-14T16:02:46.280Z,14.20
2022-11-14T16:08:10.136Z,14.38
2022-11-14T16:13:32.197Z,14.07
2022-11-14T16:18:55.576Z,14.20
2022-11-14T16:24:19.149Z,15.23
2022-11-14T16:29:40.832Z,15.68
2022-11-14T16:35:04.691Z,17.13
2022-11-14T16:40:27.956Z,16.73
2022-11-14T16:45:50.064Z,16.33
2022-11-14T16:51:40.901Z,15.77
2022-11-14T16:56:55.548Z,17.80
2022-11-14T17:02:18.783Z,17.27
2022-11-14T17:07:42.205Z,16.88
2022-11-14T17:13:04.246Z,17.40
2022-11-14T17:18:25.966Z,14.40
2022-11-14T17:23:54.020Z,15.88
2022-11-14T17:29:15.878Z,15.65
2022-11-14T17:34:37.948Z,15.80
2022-11-14T17:40:01.419Z,15.40
2022-11-14T17:45:23.568Z,17.83
2022-11-14T17:50:45.400Z,16.98
2022-11-14T17:56:12.957Z,16.70
2022-11-14T18:01:35.172Z,15.63
2022-11-14T18:06:56.856Z,16.77
2022-11-14T18:12:20.252Z,14.90
2022-11-14T18:17:42.416Z,16.85
2022-11-14T18:23:04.199Z,17.88
2022-11-14T18:28:27.677Z,15.57
2022-11-14T18:33:49.699Z,16.02
2022-11-14T18:39:12.058Z,15.27
2022-11-14T18:44:35.244Z,14.85
2022-11-14T18:49:59.273Z,16.02
2022-11-14T18:55:21.028Z,17.17
2022-11-14T19:00:45.242Z,15.85
2022-11-14T19:06:09.303Z,17.20
2022-11-14T19:11:50.008Z,16.20
2022-11-14T19:17:14.400Z,16.83
2022-11-14T19:22:36.399Z,16.40
2022-11-14T19:27:57.971Z,15.65
2022-11-14T19:33:21.141Z,16.40
2022-11-14T19:38:43.783Z,16.70
2022-11-14T19:44:05.701Z,20.17
2022-11-14T19:49:28.836Z,17.77
2022-11-14T19:54:51.688Z,17.27
2022-11-14T20:00:14.916Z,17.48
2022-11-14T20:05:38.496Z,16.33
2022-11-14T20:11:02.130Z,16.98
2022-11-14T20:16:25.592Z,15.18
2022-11-14T20:21:49.216Z,19.73
2022-11-14T20:27:11.186Z,16.60
2022-11-14T20:32:33.075Z,18.33
2022-11-14T20:37:59.388Z,18.65
2022-11-14T20:43:25.706Z,18.08
2022-11-14T20:48:48.249Z,15.55
2022-11-14T20:54:11.141Z,18.30
2022-11-14T20:59:33.225Z,17.45
2022-11-14T21:04:55.177Z,16.67
2022-11-14T21:10:37.026Z,16.92
2022-11-14T21:15:59.877Z,17.85
2022-11-14T21:21:30.422Z,18.58
2022-11-14T21:26:53.905Z,17.88
2022-11-14T21:32:15.809Z,18.73
2022-11-14T21:37:37.295Z,17.65
2022-11-14T21:43:00.490Z,19.92
2022-11-14T21:48:22.334Z,18.90
2022-11-14T21:53:45.789Z,19.27
2022-11-14T21:59:14.458Z,18.73
2022-11-14T22:04:37.017Z,17.58
2022-11-14T22:09:58.718Z,22.13
2022-11-14T22:15:21.869Z,19.00
2022-11-14T22:20:43.887Z,17.70
2022-11-14T22:26:05.950Z,19.52
2022-11-14T22:31:28.977Z,19.95
2022-11-14T22:36:50.561Z,19.08
2022-11-14T22:42:12.577Z,21.10
2022-11-14T22:47:35.654Z,20.98
2022-11-14T22:52:57.637Z,18.65
2022-11-14T22:58:19.452Z,18.15
2022-11-14T23:03:42.760Z,18.55
2022-11-14T23:09:05.291Z,18.60
2022-11-14T23:14:26.815Z,20.10
2022-11-14T23:19:50.674Z,20.20
2022-11-14T23:25:12.366Z,16.15
2022-11-14T23:30:35.757Z,18.52
2022-11-14T23:35:59.060Z,18.63
2022-11-14T23:41:22.804Z,18.30
2022-11-14T23:46:44.382Z,21.30
2022-11-14T23:52:07.714Z,17.50
2022-11-14T23:57:30.888Z,17.20
